sensor_id;sensor_type;location;lat;lon;timestamp;temperature;humidity
34434;DHT22;34290;48.562;13.384;2022-07-29T00:00:59;18.50;99.90
34434;DHT22;34290;48.562;13.384;2022-07-29T00:03:26;18.50;99.90
34434;DHT22;34290;48.562;13.384;2022-07-29T00:05:54;18.60;99.90
34434;DHT22;34290;48.562;13.384;2022-07-29T00:08:22;18.60;99.90
34434;DHT22;34290;48.562;13.384;2022-07-29T00:10:51;18.60;99.90
34434;DHT22;34290;48.562;13.384;2022-07-29T00:13:18;18.60;99.90
34434;DHT22;34290;48.562;13.384;2022-07-29T00:15:45;18.60;99.90
34434;DHT22;34290;48.562;13.384;2022-07-29T00:18:12;18.60;99.90
34434;DHT22;34290;48.562;13.384;2022-07-29T00:20:39;18.50;99.90
34434;DHT22;34290;48.562;13.384;2022-07-29T00:23:08;18.50;99.90
34434;DHT22;34290;48.562;13.384;2022-07-29T00:25:35;18.40;99.90
34434;DHT22;34290;48.562;13.384;2022-07-29T00:28:02;18.40;99.90
34434;DHT22;34290;48.562;13.384;2022-07-29T00:30:29;18.40;99.90
34434;DHT22;34290;48.562;13.384;2022-07-29T00:32:56;18.40;99.90
34434;DHT22;34290;48.562;13.384;2022-07-29T00:35:23;18.50;99.90
34434;DHT22;34290;48.562;13.384;2022-07-29T00:38:09;18.60;99.90
34434;DHT22;34290;48.562;13.384;2022-07-29T00:40:37;18.70;99.90
34434;DHT22;34290;48.562;13.384;2022-07-29T00:43:04;18.60;99.90
34434;DHT22;34290;48.562;13.384;2022-07-29T00:45:31;18.50;99.90
34434;DHT22;34290;48.562;13.384;2022-07-29T00:47:58;18.50;99.90
34434;DHT22;34290;48.562;13.384;2022-07-29T00:50:26;18.50;99.90
34434;DHT22;34290;48.562;13.384;2022-07-29T00:52:53;18.50;99.90
34434;DHT22;34290;48.562;13.384;2022-07-29T00:55:22;18.60;99.90
34434;DHT22;34290;48.562;13.384;2022-07-29T00:57:49;18.50;99.90
34434;DHT22;34290;48.562;13.384;2022-07-29T01:00:19;18.50;99.90
34434;DHT22;34290;48.562;13.384;2022-07-29T01:02:46;18.50;99.90
34434;DHT22;34290;48.562;13.384;2022-07-29T01:05:15;18.50;99.90
34434;DHT22;34290;48.562;13.384;2022-07-29T01:07:43;18.50;99.90
34434;DHT22;34290;48.562;13.384;2022-07-29T01:10:12;18.40;99.90
34434;DHT22;34290;48.562;13.384;2022-07-29T01:12:43;18.40;99.90
34434;DHT22;34290;48.562;13.384;2022-07-29T01:15:11;18.40;99.90
34434;DHT22;34290;48.562;13.384;2022-07-29T01:17:43;18.40;99.90
34434;DHT22;34290;48.562;13.384;2022-07-29T01:20:16;18.40;99.90
34434;DHT22;34290;48.562;13.384;2022-07-29T01:23:05;18.40;99.90
34434;DHT22;34290;48.562;13.384;2022-07-29T01:25:48;18.40;99.90
34434;DHT22;34290;48.562;13.384;2022-07-29T01:28:41;18.40;99.90
34434;DHT22;34290;48.562;13.384;2022-07-29T01:31:11;18.30;99.90
34434;DHT22;34290;48.562;13.384;2022-07-29T01:33:43;18.40;99.90
34434;DHT22;34290;48.562;13.384;2022-07-29T01:36:22;18.40;99.90
34434;DHT22;34290;48.562;13.384;2022-07-29T01:38:56;18.20;99.90
34434;DHT22;34290;48.562;13.384;2022-07-29T01:41:26;18.10;99.90
34434;DHT22;34290;48.562;13.384;2022-07-29T01:43:59;18.00;99.90
34434;DHT22;34290;48.562;13.384;2022-07-29T01:46:33;17.80;99.90
34434;DHT22;34290;48.562;13.384;2022-07-29T01:49:08;17.70;99.90
34434;DHT22;34290;48.562;13.384;2022-07-29T01:51:47;17.60;99.90
34434;DHT22;34290;48.562;13.384;2022-07-29T01:54:20;17.60;99.90
34434;DHT22;34290;48.562;13.384;2022-07-29T01:56:51;17.60;99.90
34434;DHT22;34290;48.562;13.384;2022-07-29T01:59:23;17.70;99.90
34434;DHT22;34290;48.562;13.384;2022-07-29T02:01:52;17.70;99.90
34434;DHT22;34290;48.562;13.384;2022-07-29T02:04:20;17.70;99.90
34434;DHT22;34290;48.562;13.384;2022-07-29T02:06:50;17.80;99.90
34434;DHT22;34290;48.562;13.384;2022-07-29T02:09:19;17.70;99.90
34434;DHT22;34290;48.562;13.384;2022-07-29T02:11:53;17.70;99.90
34434;DHT22;34290;48.562;13.384;2022-07-29T02:14:23;17.70;99.90
34434;DHT22;34290;48.562;13.384;2022-07-29T02:16:53;17.70;99.90
34434;DHT22;34290;48.562;13.384;2022-07-29T02:19:21;17.70;99.90
34434;DHT22;34290;48.562;13.384;2022-07-29T02:21:52;17.70;99.90
34434;DHT22;34290;48.562;13.384;2022-07-29T02:24:21;17.70;99.90
34434;DHT22;34290;48.562;13.384;2022-07-29T02:26:50;17.60;99.90
34434;DHT22;34290;48.562;13.384;2022-07-29T02:29:19;17.60;99.90
34434;DHT22;34290;48.562;13.384;2022-07-29T02:31:49;17.50;99.90
34434;DHT22;34290;48.562;13.384;2022-07-29T02:34:18;17.50;99.90
34434;DHT22;34290;48.562;13.384;2022-07-29T02:36:47;17.40;99.90
34434;DHT22;34290;48.562;13.384;2022-07-29T02:39:15;17.40;99.90
34434;DHT22;34290;48.562;13.384;2022-07-29T02:41:45;17.30;99.90
34434;DHT22;34290;48.562;13.384;2022-07-29T02:44:15;17.20;99.90
34434;DHT22;34290;48.562;13.384;2022-07-29T02:46:48;17.10;99.90
34434;DHT22;34290;48.562;13.384;2022-07-29T02:49:25;17.10;99.90
34434;DHT22;34290;48.562;13.384;2022-07-29T02:52:01;17.10;99.90
34434;DHT22;34290;48.562;13.384;2022-07-29T02:54:36;17.20;99.90
34434;DHT22;34290;48.562;13.384;2022-07-29T02:57:09;17.10;99.90
34434;DHT22;34290;48.562;13.384;2022-07-29T02:59:41;17.20;99.90
34434;DHT22;34290;48.562;13.384;2022-07-29T03:02:13;17.20;99.90
34434;DHT22;34290;48.562;13.384;2022-07-29T03:04:43;17.20;99.90
34434;DHT22;34290;48.562;13.384;2022-07-29T03:07:11;17.20;99.90
34434;DHT22;34290;48.562;13.384;2022-07-29T03:09:41;17.30;99.90
34434;DHT22;34290;48.562;13.384;2022-07-29T03:12:09;17.40;99.90
34434;DHT22;34290;48.562;13.384;2022-07-29T03:14:38;17.30;99.90
34434;DHT22;34290;48.562;13.384;2022-07-29T03:17:05;17.30;99.90
34434;DHT22;34290;48.562;13.384;2022-07-29T03:19:33;17.40;99.90
34434;DHT22;34290;48.562;13.384;2022-07-29T03:22:02;17.40;99.90
34434;DHT22;34290;48.562;13.384;2022-07-29T03:24:32;17.40;99.90
34434;DHT22;34290;48.562;13.384;2022-07-29T03:26:59;17.50;99.90
34434;DHT22;34290;48.562;13.384;2022-07-29T03:29:27;17.40;99.90
34434;DHT22;34290;48.562;13.384;2022-07-29T03:31:54;17.40;99.90
34434;DHT22;34290;48.562;13.384;2022-07-29T03:34:21;17.30;99.90
34434;DHT22;34290;48.562;13.384;2022-07-29T03:36:49;17.30;99.90
34434;DHT22;34290;48.562;13.384;2022-07-29T03:39:20;17.30;99.90
34434;DHT22;34290;48.562;13.384;2022-07-29T03:41:51;17.10;99.90
34434;DHT22;34290;48.562;13.384;2022-07-29T03:44:19;17.10;99.90
34434;DHT22;34290;48.562;13.384;2022-07-29T03:46:49;17.10;99.90
34434;DHT22;34290;48.562;13.384;2022-07-29T03:49:18;17.00;99.90
34434;DHT22;34290;48.562;13.384;2022-07-29T03:51:46;17.00;99.90
34434;DHT22;34290;48.562;13.384;2022-07-29T03:54:14;17.00;99.90
34434;DHT22;34290;48.562;13.384;2022-07-29T03:56:44;17.10;99.90
34434;DHT22;34290;48.562;13.384;2022-07-29T03:59:13;17.10;99.90
34434;DHT22;34290;48.562;13.384;2022-07-29T04:01:43;17.20;99.90
34434;DHT22;34290;48.562;13.384;2022-07-29T04:04:10;17.20;99.90
34434;DHT22;34290;48.562;13.384;2022-07-29T04:06:39;17.10;99.90
34434;DHT22;34290;48.562;13.384;2022-07-29T04:09:06;17.00;99.90
34434;DHT22;34290;48.562;13.384;2022-07-29T04:11:34;17.00;99.90
34434;DHT22;34290;48.562;13.384;2022-07-29T04:14:02;17.00;99.90
34434;DHT22;34290;48.562;13.384;2022-07-29T04:16:30;17.00;99.90
34434;DHT22;34290;48.562;13.384;2022-07-29T04:18:57;17.00;99.90
34434;DHT22;34290;48.562;13.384;2022-07-29T04:21:24;17.00;99.90
34434;DHT22;34290;48.562;13.384;2022-07-29T04:26:20;17.00;99.90
34434;DHT22;34290;48.562;13.384;2022-07-29T04:28:47;17.10;99.90
34434;DHT22;34290;48.562;13.384;2022-07-29T04:31:15;17.10;99.90
34434;DHT22;34290;48.562;13.384;2022-07-29T04:36:10;17.20;99.90
34434;DHT22;34290;48.562;13.384;2022-07-29T04:38:38;17.20;99.90
34434;DHT22;34290;48.562;13.384;2022-07-29T04:41:05;17.20;99.90
34434;DHT22;34290;48.562;13.384;2022-07-29T04:43:34;17.30;99.90
34434;DHT22;34290;48.562;13.384;2022-07-29T04:46:01;17.30;99.90
34434;DHT22;34290;48.562;13.384;2022-07-29T04:48:29;17.30;99.90
34434;DHT22;34290;48.562;13.384;2022-07-29T04:53:24;17.40;99.90
34434;DHT22;34290;48.562;13.384;2022-07-29T04:55:51;17.50;99.90
34434;DHT22;34290;48.562;13.384;2022-07-29T04:58:18;17.50;99.90
34434;DHT22;34290;48.562;13.384;2022-07-29T05:00:49;17.50;99.90
34434;DHT22;34290;48.562;13.384;2022-07-29T05:03:16;17.40;99.90
34434;DHT22;34290;48.562;13.384;2022-07-29T05:05:44;17.40;99.90
34434;DHT22;34290;48.562;13.384;2022-07-29T05:08:11;17.40;99.90
34434;DHT22;34290;48.562;13.384;2022-07-29T05:10:38;17.50;99.90
34434;DHT22;34290;48.562;13.384;2022-07-29T05:13:06;17.50;99.90
34434;DHT22;34290;48.562;13.384;2022-07-29T05:15:34;17.60;99.90
34434;DHT22;34290;48.562;13.384;2022-07-29T05:18:02;17.70;99.90
34434;DHT22;34290;48.562;13.384;2022-07-29T05:20:30;17.70;99.90
34434;DHT22;34290;48.562;13.384;2022-07-29T05:23:00;17.70;99.90
34434;DHT22;34290;48.562;13.384;2022-07-29T05:25:28;17.70;99.90
34434;DHT22;34290;48.562;13.384;2022-07-29T05:27:56;17.90;99.90
34434;DHT22;34290;48.562;13.384;2022-07-29T05:30:23;17.90;99.90
34434;DHT22;34290;48.562;13.384;2022-07-29T05:32:51;18.00;99.90
34434;DHT22;34290;48.562;13.384;2022-07-29T05:37:47;18.10;99.90
34434;DHT22;34290;48.562;13.384;2022-07-29T05:40:16;18.10;99.90
34434;DHT22;34290;48.562;13.384;2022-07-29T05:42:43;18.10;99.90
34434;DHT22;34290;48.562;13.384;2022-07-29T05:45:10;18.20;99.90
34434;DHT22;34290;48.562;13.384;2022-07-29T05:47:38;18.30;99.90
34434;DHT22;34290;48.562;13.384;2022-07-29T05:52:33;18.30;99.90
34434;DHT22;34290;48.562;13.384;2022-07-29T05:55:00;18.40;99.90
34434;DHT22;34290;48.562;13.384;2022-07-29T05:57:31;18.40;99.90
34434;DHT22;34290;48.562;13.384;2022-07-29T05:59:58;18.50;99.90
34434;DHT22;34290;48.562;13.384;2022-07-29T06:02:25;18.50;99.90
34434;DHT22;34290;48.562;13.384;2022-07-29T06:07:20;18.40;99.90
34434;DHT22;34290;48.562;13.384;2022-07-29T06:12:14;18.40;99.90
34434;DHT22;34290;48.562;13.384;2022-07-29T06:14:43;18.40;99.90
34434;DHT22;34290;48.562;13.384;2022-07-29T06:17:10;18.50;99.90
34434;DHT22;34290;48.562;13.384;2022-07-29T06:19:37;18.50;99.90
34434;DHT22;34290;48.562;13.384;2022-07-29T06:22:04;18.60;99.90
34434;DHT22;34290;48.562;13.384;2022-07-29T06:24:34;18.70;99.90
34434;DHT22;34290;48.562;13.384;2022-07-29T06:27:02;18.90;99.90
34434;DHT22;34290;48.562;13.384;2022-07-29T06:31:58;19.10;99.90
34434;DHT22;34290;48.562;13.384;2022-07-29T06:34:25;19.20;99.90
34434;DHT22;34290;48.562;13.384;2022-07-29T06:36:52;19.40;99.90
34434;DHT22;34290;48.562;13.384;2022-07-29T06:39:19;19.40;99.90
34434;DHT22;34290;48.562;13.384;2022-07-29T06:41:47;19.50;99.90
34434;DHT22;34290;48.562;13.384;2022-07-29T06:44:15;19.60;99.90
34434;DHT22;34290;48.562;13.384;2022-07-29T06:46:42;19.70;99.90
34434;DHT22;34290;48.562;13.384;2022-07-29T06:49:10;19.90;99.90
34434;DHT22;34290;48.562;13.384;2022-07-29T06:54:05;20.30;99.90
34434;DHT22;34290;48.562;13.384;2022-07-29T06:56:34;20.50;99.90
34434;DHT22;34290;48.562;13.384;2022-07-29T07:01:29;21.40;99.90
34434;DHT22;34290;48.562;13.384;2022-07-29T07:06:25;22.30;99.90
34434;DHT22;34290;48.562;13.384;2022-07-29T07:08:52;22.80;99.90
34434;DHT22;34290;48.562;13.384;2022-07-29T07:11:19;23.10;99.90
34434;DHT22;34290;48.562;13.384;2022-07-29T07:13:46;23.30;99.90
34434;DHT22;34290;48.562;13.384;2022-07-29T07:16:13;23.40;99.90
34434;DHT22;34290;48.562;13.384;2022-07-29T07:21:10;23.10;99.90
34434;DHT22;34290;48.562;13.384;2022-07-29T07:23:39;23.20;99.90
34434;DHT22;34290;48.562;13.384;2022-07-29T07:26:06;23.30;99.90
34434;DHT22;34290;48.562;13.384;2022-07-29T07:28:33;23.40;99.90
34434;DHT22;34290;48.562;13.384;2022-07-29T07:31:00;23.60;99.90
34434;DHT22;34290;48.562;13.384;2022-07-29T07:33:27;23.90;99.90
34434;DHT22;34290;48.562;13.384;2022-07-29T07:35:54;24.10;99.90
34434;DHT22;34290;48.562;13.384;2022-07-29T07:38:23;24.20;99.90
34434;DHT22;34290;48.562;13.384;2022-07-29T07:40:51;24.30;99.90
34434;DHT22;34290;48.562;13.384;2022-07-29T07:43:18;24.40;99.90
34434;DHT22;34290;48.562;13.384;2022-07-29T07:48:13;24.10;99.90
34434;DHT22;34290;48.562;13.384;2022-07-29T07:53:07;23.50;99.90
34434;DHT22;34290;48.562;13.384;2022-07-29T07:55:39;23.50;99.90
34434;DHT22;34290;48.562;13.384;2022-07-29T07:58:08;23.50;99.90
34434;DHT22;34290;48.562;13.384;2022-07-29T08:00:35;24.80;99.90
34434;DHT22;34290;48.562;13.384;2022-07-29T08:03:03;25.70;99.90
34434;DHT22;34290;48.562;13.384;2022-07-29T08:05:30;25.40;99.90
34434;DHT22;34290;48.562;13.384;2022-07-29T08:07:57;24.90;99.90
34434;DHT22;34290;48.562;13.384;2022-07-29T08:10:25;24.80;99.90
34434;DHT22;34290;48.562;13.384;2022-07-29T08:13:08;25.90;99.90
34434;DHT22;34290;48.562;13.384;2022-07-29T08:15:36;27.30;99.90
34434;DHT22;34290;48.562;13.384;2022-07-29T08:18:05;28.30;98.80
34434;DHT22;34290;48.562;13.384;2022-07-29T08:20:32;28.70;98.50
34434;DHT22;34290;48.562;13.384;2022-07-29T08:23:01;28.50;96.60
34434;DHT22;34290;48.562;13.384;2022-07-29T08:25:28;29.00;94.00
34434;DHT22;34290;48.562;13.384;2022-07-29T08:27:55;30.30;93.20
34434;DHT22;34290;48.562;13.384;2022-07-29T08:30:24;30.70;92.40
34434;DHT22;34290;48.562;13.384;2022-07-29T08:32:51;30.80;92.60
34434;DHT22;34290;48.562;13.384;2022-07-29T08:35:18;30.90;91.60
34434;DHT22;34290;48.562;13.384;2022-07-29T08:37:46;30.80;91.60
34434;DHT22;34290;48.562;13.384;2022-07-29T08:40:13;31.60;90.40
34434;DHT22;34290;48.562;13.384;2022-07-29T08:42:40;31.50;90.00
34434;DHT22;34290;48.562;13.384;2022-07-29T08:45:08;31.20;89.90
34434;DHT22;34290;48.562;13.384;2022-07-29T08:47:38;31.60;90.50
34434;DHT22;34290;48.562;13.384;2022-07-29T08:52:36;33.40;89.20
34434;DHT22;34290;48.562;13.384;2022-07-29T08:55:04;33.00;86.30
34434;DHT22;34290;48.562;13.384;2022-07-29T08:57:33;33.00;86.50
34434;DHT22;34290;48.562;13.384;2022-07-29T09:00:00;33.00;85.70
34434;DHT22;34290;48.562;13.384;2022-07-29T09:02:30;32.90;86.30
34434;DHT22;34290;48.562;13.384;2022-07-29T09:05:05;32.70;84.00
34434;DHT22;34290;48.562;13.384;2022-07-29T09:07:33;33.60;83.90
34434;DHT22;34290;48.562;13.384;2022-07-29T09:10:05;33.10;82.40
34434;DHT22;34290;48.562;13.384;2022-07-29T09:12:32;33.30;83.50
34434;DHT22;34290;48.562;13.384;2022-07-29T09:14:59;34.10;82.20
34434;DHT22;34290;48.562;13.384;2022-07-29T09:17:43;33.40;82.60
34434;DHT22;34290;48.562;13.384;2022-07-29T09:20:14;30.90;87.00
34434;DHT22;34290;48.562;13.384;2022-07-29T09:22:41;30.80;87.80
34434;DHT22;34290;48.562;13.384;2022-07-29T09:25:10;29.80;88.50
34434;DHT22;34290;48.562;13.384;2022-07-29T09:27:38;29.50;90.00
34434;DHT22;34290;48.562;13.384;2022-07-29T09:30:06;30.10;90.10
34434;DHT22;34290;48.562;13.384;2022-07-29T09:32:54;30.10;90.00
34434;DHT22;34290;48.562;13.384;2022-07-29T09:35:25;30.90;88.20
34434;DHT22;34290;48.562;13.384;2022-07-29T09:37:52;31.30;86.60
34434;DHT22;34290;48.562;13.384;2022-07-29T09:40:21;33.00;85.40
34434;DHT22;34290;48.562;13.384;2022-07-29T09:42:49;33.00;82.70
34434;DHT22;34290;48.562;13.384;2022-07-29T09:45:27;33.10;84.50
34434;DHT22;34290;48.562;13.384;2022-07-29T09:47:58;33.10;79.70
34434;DHT22;34290;48.562;13.384;2022-07-29T09:50:39;31.90;81.00
34434;DHT22;34290;48.562;13.384;2022-07-29T09:53:07;31.70;81.60
34434;DHT22;34290;48.562;13.384;2022-07-29T09:55:47;31.80;82.10
34434;DHT22;34290;48.562;13.384;2022-07-29T09:58:16;32.40;82.20
34434;DHT22;34290;48.562;13.384;2022-07-29T10:00:44;32.50;81.30
34434;DHT22;34290;48.562;13.384;2022-07-29T10:03:11;32.60;81.50
34434;DHT22;34290;48.562;13.384;2022-07-29T10:05:40;33.10;80.00
34434;DHT22;34290;48.562;13.384;2022-07-29T10:08:08;32.70;80.00
34434;DHT22;34290;48.562;13.384;2022-07-29T10:10:37;30.70;81.90
34434;DHT22;34290;48.562;13.384;2022-07-29T10:13:06;30.60;82.70
34434;DHT22;34290;48.562;13.384;2022-07-29T10:15:34;30.10;85.00
34434;DHT22;34290;48.562;13.384;2022-07-29T10:18:05;30.60;87.70
34434;DHT22;34290;48.562;13.384;2022-07-29T10:20:32;31.20;83.40
34434;DHT22;34290;48.562;13.384;2022-07-29T10:23:01;31.20;83.90
34434;DHT22;34290;48.562;13.384;2022-07-29T10:25:28;31.10;84.00
34434;DHT22;34290;48.562;13.384;2022-07-29T10:27:55;30.90;89.20
34434;DHT22;34290;48.562;13.384;2022-07-29T10:30:24;30.70;85.60
34434;DHT22;34290;48.562;13.384;2022-07-29T10:33:21;30.70;87.10
34434;DHT22;34290;48.562;13.384;2022-07-29T10:36:05;31.20;84.70
34434;DHT22;34290;48.562;13.384;2022-07-29T10:38:47;31.20;84.30
34434;DHT22;34290;48.562;13.384;2022-07-29T10:44:18;31.20;86.40
34434;DHT22;34290;48.562;13.384;2022-07-29T10:46:46;31.00;82.50
34434;DHT22;34290;48.562;13.384;2022-07-29T10:49:15;30.40;83.50
34434;DHT22;34290;48.562;13.384;2022-07-29T10:51:56;29.10;86.40
34434;DHT22;34290;48.562;13.384;2022-07-29T10:54:41;29.10;86.00
34434;DHT22;34290;48.562;13.384;2022-07-29T10:57:30;29.10;87.90
34434;DHT22;34290;48.562;13.384;2022-07-29T11:00:30;29.10;87.00
34434;DHT22;34290;48.562;13.384;2022-07-29T11:02:58;29.00;87.70
34434;DHT22;34290;48.562;13.384;2022-07-29T11:05:26;29.00;87.70
34434;DHT22;34290;48.562;13.384;2022-07-29T11:08:18;29.40;87.30
34434;DHT22;34290;48.562;13.384;2022-07-29T11:10:49;29.00;86.20
34434;DHT22;34290;48.562;13.384;2022-07-29T11:13:44;29.00;89.00
34434;DHT22;34290;48.562;13.384;2022-07-29T11:16:13;29.00;87.70
34434;DHT22;34290;48.562;13.384;2022-07-29T11:21:41;29.20;87.60
34434;DHT22;34290;48.562;13.384;2022-07-29T11:24:12;29.40;86.30
34434;DHT22;34290;48.562;13.384;2022-07-29T11:26:41;29.40;86.60
34434;DHT22;34290;48.562;13.384;2022-07-29T11:29:18;29.30;86.20
34434;DHT22;34290;48.562;13.384;2022-07-29T11:31:47;29.40;87.30
34434;DHT22;34290;48.562;13.384;2022-07-29T11:34:19;29.50;87.00
34434;DHT22;34290;48.562;13.384;2022-07-29T11:37:19;29.80;85.50
34434;DHT22;34290;48.562;13.384;2022-07-29T11:42:40;28.70;86.50
34434;DHT22;34290;48.562;13.384;2022-07-29T11:45:09;28.70;87.10
34434;DHT22;34290;48.562;13.384;2022-07-29T11:47:38;29.00;87.30
34434;DHT22;34290;48.562;13.384;2022-07-29T11:52:35;29.40;85.00
34434;DHT22;34290;48.562;13.384;2022-07-29T11:55:05;29.30;88.00
34434;DHT22;34290;48.562;13.384;2022-07-29T11:57:34;29.30;85.90
34434;DHT22;34290;48.562;13.384;2022-07-29T12:00:04;29.00;85.60
34434;DHT22;34290;48.562;13.384;2022-07-29T12:02:39;28.80;86.30
34434;DHT22;34290;48.562;13.384;2022-07-29T12:05:08;28.90;85.80
34434;DHT22;34290;48.562;13.384;2022-07-29T12:07:36;28.90;87.50
34434;DHT22;34290;48.562;13.384;2022-07-29T12:10:04;29.40;87.20
34434;DHT22;34290;48.562;13.384;2022-07-29T12:12:33;29.40;83.00
34434;DHT22;34290;48.562;13.384;2022-07-29T12:15:13;29.50;83.90
34434;DHT22;34290;48.562;13.384;2022-07-29T12:17:40;29.40;84.40
34434;DHT22;34290;48.562;13.384;2022-07-29T12:20:08;29.30;84.40
34434;DHT22;34290;48.562;13.384;2022-07-29T12:22:37;29.30;84.90
34434;DHT22;34290;48.562;13.384;2022-07-29T12:25:06;28.90;85.10
34434;DHT22;34290;48.562;13.384;2022-07-29T12:27:35;28.80;87.70
34434;DHT22;34290;48.562;13.384;2022-07-29T12:30:05;29.10;87.20
34434;DHT22;34290;48.562;13.384;2022-07-29T12:32:36;29.20;84.40
34434;DHT22;34290;48.562;13.384;2022-07-29T12:35:05;29.00;84.50
34434;DHT22;34290;48.562;13.384;2022-07-29T12:37:33;28.80;85.60
34434;DHT22;34290;48.562;13.384;2022-07-29T12:40:01;28.90;86.50
34434;DHT22;34290;48.562;13.384;2022-07-29T12:42:29;28.70;83.00
34434;DHT22;34290;48.562;13.384;2022-07-29T12:44:56;28.70;83.80
34434;DHT22;34290;48.562;13.384;2022-07-29T12:47:23;29.00;86.50
34434;DHT22;34290;48.562;13.384;2022-07-29T12:50:08;29.60;83.70
34434;DHT22;34290;48.562;13.384;2022-07-29T12:52:36;29.60;84.30
34434;DHT22;34290;48.562;13.384;2022-07-29T12:55:04;29.80;83.70
34434;DHT22;34290;48.562;13.384;2022-07-29T12:57:32;30.00;82.80
34434;DHT22;34290;48.562;13.384;2022-07-29T13:00:05;30.00;82.40
34434;DHT22;34290;48.562;13.384;2022-07-29T13:02:36;30.10;83.40
34434;DHT22;34290;48.562;13.384;2022-07-29T13:05:08;30.20;82.10
34434;DHT22;34290;48.562;13.384;2022-07-29T13:07:36;30.40;84.30
34434;DHT22;34290;48.562;13.384;2022-07-29T13:10:14;30.70;83.40
34434;DHT22;34290;48.562;13.384;2022-07-29T13:13:04;30.70;84.00
34434;DHT22;34290;48.562;13.384;2022-07-29T13:15:31;30.80;83.40
34434;DHT22;34290;48.562;13.384;2022-07-29T13:17:59;30.70;82.10
34434;DHT22;34290;48.562;13.384;2022-07-29T13:20:28;30.60;81.60
34434;DHT22;34290;48.562;13.384;2022-07-29T13:22:58;30.50;82.50
34434;DHT22;34290;48.562;13.384;2022-07-29T13:25:27;30.10;80.10
34434;DHT22;34290;48.562;13.384;2022-07-29T13:27:54;29.70;82.30
34434;DHT22;34290;48.562;13.384;2022-07-29T13:30:22;29.00;82.40
34434;DHT22;34290;48.562;13.384;2022-07-29T13:32:50;28.90;83.00
34434;DHT22;34290;48.562;13.384;2022-07-29T13:35:25;28.90;84.60
34434;DHT22;34290;48.562;13.384;2022-07-29T13:37:58;29.20;85.20
34434;DHT22;34290;48.562;13.384;2022-07-29T13:40:28;29.00;82.50
34434;DHT22;34290;48.562;13.384;2022-07-29T13:42:55;29.00;83.30
34434;DHT22;34290;48.562;13.384;2022-07-29T13:45:23;29.00;85.00
34434;DHT22;34290;48.562;13.384;2022-07-29T13:47:50;29.10;83.80
34434;DHT22;34290;48.562;13.384;2022-07-29T13:50:17;29.20;83.60
34434;DHT22;34290;48.562;13.384;2022-07-29T13:52:44;29.10;84.50
34434;DHT22;34290;48.562;13.384;2022-07-29T13:55:15;29.10;83.20
34434;DHT22;34290;48.562;13.384;2022-07-29T13:57:45;29.00;84.10
34434;DHT22;34290;48.562;13.384;2022-07-29T14:00:13;28.80;84.00
34434;DHT22;34290;48.562;13.384;2022-07-29T14:02:42;28.70;84.30
34434;DHT22;34290;48.562;13.384;2022-07-29T14:05:09;28.80;84.50
34434;DHT22;34290;48.562;13.384;2022-07-29T14:07:36;28.60;85.30
34434;DHT22;34290;48.562;13.384;2022-07-29T14:10:05;28.50;86.00
34434;DHT22;34290;48.562;13.384;2022-07-29T14:12:33;28.60;85.70
34434;DHT22;34290;48.562;13.384;2022-07-29T14:15:00;28.70;85.40
34434;DHT22;34290;48.562;13.384;2022-07-29T14:17:27;28.50;87.10
34434;DHT22;34290;48.562;13.384;2022-07-29T14:19:55;28.50;86.00
34434;DHT22;34290;48.562;13.384;2022-07-29T14:22:22;28.60;85.30
34434;DHT22;34290;48.562;13.384;2022-07-29T14:24:50;28.60;85.50
34434;DHT22;34290;48.562;13.384;2022-07-29T14:27:17;28.70;86.60
34434;DHT22;34290;48.562;13.384;2022-07-29T14:29:46;28.80;85.10
34434;DHT22;34290;48.562;13.384;2022-07-29T14:32:13;28.90;85.30
34434;DHT22;34290;48.562;13.384;2022-07-29T14:34:41;29.00;86.70
34434;DHT22;34290;48.562;13.384;2022-07-29T14:37:08;29.00;85.80
34434;DHT22;34290;48.562;13.384;2022-07-29T14:39:35;29.20;87.40
34434;DHT22;34290;48.562;13.384;2022-07-29T14:42:03;29.20;85.50
34434;DHT22;34290;48.562;13.384;2022-07-29T14:44:30;29.30;86.90
34434;DHT22;34290;48.562;13.384;2022-07-29T14:46:59;29.30;86.20
34434;DHT22;34290;48.562;13.384;2022-07-29T14:49:27;29.20;88.00
34434;DHT22;34290;48.562;13.384;2022-07-29T14:51:54;29.10;88.30
34434;DHT22;34290;48.562;13.384;2022-07-29T14:54:21;29.00;90.80
34434;DHT22;34290;48.562;13.384;2022-07-29T14:56:48;28.70;88.30
34434;DHT22;34290;48.562;13.384;2022-07-29T14:59:16;28.40;86.60
34434;DHT22;34290;48.562;13.384;2022-07-29T15:01:44;28.40;85.80
34434;DHT22;34290;48.562;13.384;2022-07-29T15:04:12;28.20;85.70
34434;DHT22;34290;48.562;13.384;2022-07-29T15:06:39;28.20;86.30
34434;DHT22;34290;48.562;13.384;2022-07-29T15:09:06;28.30;87.20
34434;DHT22;34290;48.562;13.384;2022-07-29T15:11:33;28.30;86.30
34434;DHT22;34290;48.562;13.384;2022-07-29T15:14:00;28.40;87.00
34434;DHT22;34290;48.562;13.384;2022-07-29T15:16:28;28.40;87.20
34434;DHT22;34290;48.562;13.384;2022-07-29T15:18:55;28.30;86.50
34434;DHT22;34290;48.562;13.384;2022-07-29T15:21:24;28.20;86.90
34434;DHT22;34290;48.562;13.384;2022-07-29T15:23:51;28.10;86.20
34434;DHT22;34290;48.562;13.384;2022-07-29T15:26:19;28.10;87.60
34434;DHT22;34290;48.562;13.384;2022-07-29T15:28:46;28.10;86.70
34434;DHT22;34290;48.562;13.384;2022-07-29T15:31:13;28.20;88.10
34434;DHT22;34290;48.562;13.384;2022-07-29T15:33:40;28.20;88.30
34434;DHT22;34290;48.562;13.384;2022-07-29T15:36:07;28.10;87.00
34434;DHT22;34290;48.562;13.384;2022-07-29T15:38:37;28.00;86.70
34434;DHT22;34290;48.562;13.384;2022-07-29T15:41:06;27.90;87.00
34434;DHT22;34290;48.562;13.384;2022-07-29T15:43:33;27.90;87.50
34434;DHT22;34290;48.562;13.384;2022-07-29T15:46:01;27.90;87.90
34434;DHT22;34290;48.562;13.384;2022-07-29T15:48:45;27.80;87.40
34434;DHT22;34290;48.562;13.384;2022-07-29T15:51:12;27.80;87.10
34434;DHT22;34290;48.562;13.384;2022-07-29T15:53:41;27.80;87.20
34434;DHT22;34290;48.562;13.384;2022-07-29T15:56:08;27.80;88.70
34434;DHT22;34290;48.562;13.384;2022-07-29T15:58:35;27.80;89.30
34434;DHT22;34290;48.562;13.384;2022-07-29T16:01:02;27.90;89.60
34434;DHT22;34290;48.562;13.384;2022-07-29T16:03:29;27.80;90.60
34434;DHT22;34290;48.562;13.384;2022-07-29T16:05:57;27.60;93.50
34434;DHT22;34290;48.562;13.384;2022-07-29T16:08:24;27.30;92.50
34434;DHT22;34290;48.562;13.384;2022-07-29T16:10:53;26.50;98.20
34434;DHT22;34290;48.562;13.384;2022-07-29T16:13:20;26.00;98.70
34434;DHT22;34290;48.562;13.384;2022-07-29T16:15:47;25.80;99.90
34434;DHT22;34290;48.562;13.384;2022-07-29T16:18:14;25.30;99.90